createdAt,value
2019-02-25T00:02:34.541Z,12.67
2019-02-25T00:05:04.950Z,11.87
2019-02-25T00:07:35.079Z,13.37
2019-02-25T00:10:05.909Z,12.17
2019-02-25T00:12:36.347Z,14.83
2019-02-25T00:15:06.873Z,13.70
2019-02-25T00:17:38.825Z,16.07
2019-02-25T00:20:10.707Z,13.90
2019-02-25T00:22:40.890Z,13.20
2019-02-25T00:25:11.239Z,14.90
2019-02-25T00:27:41.581Z,15.90
2019-02-25T00:30:11.825Z,14.77
2019-02-25T00:32:42.053Z,18.33
2019-02-25T00:35:12.334Z,15.53
2019-02-25T00:37:42.597Z,15.07
2019-02-25T00:40:12.896Z,15.70
2019-02-25T00:42:43.067Z,17.07
2019-02-25T00:45:13.262Z,20.87
2019-02-25T00:47:43.538Z,16.47
2019-02-25T00:50:14.317Z,17.03
2019-02-25T00:52:44.546Z,19.80
2019-02-25T00:55:15.046Z,16.77
2019-02-25T00:57:45.096Z,19.57
2019-02-25T01:00:16.009Z,19.90
2019-02-25T01:02:46.337Z,18.00
2019-02-25T01:05:17.242Z,17.03
2019-02-25T01:07:47.390Z,17.60
2019-02-25T01:10:18.335Z,17.37
2019-02-25T01:12:49.031Z,20.00
2019-02-25T01:15:19.199Z,19.10
2019-02-25T01:17:49.394Z,16.53
2019-02-25T01:20:19.629Z,17.57
2019-02-25T01:22:49.853Z,21.43
2019-02-25T01:25:20.236Z,20.10
2019-02-25T01:27:50.562Z,15.93
2019-02-25T01:30:23.445Z,18.90
2019-02-25T01:32:53.854Z,21.60
2019-02-25T01:35:24.081Z,18.80
2019-02-25T01:37:54.607Z,22.73
2019-02-25T01:40:26.161Z,22.80
2019-02-25T01:42:56.318Z,24.10
2019-02-25T01:45:27.116Z,18.03
2019-02-25T01:47:57.451Z,17.70
2019-02-25T01:50:28.579Z,17.73
2019-02-25T01:52:58.918Z,20.87
2019-02-25T01:55:29.036Z,18.60
2019-02-25T01:57:59.211Z,21.50
2019-02-25T02:00:29.499Z,18.47
2019-02-25T02:02:59.637Z,18.30
2019-02-25T02:05:29.857Z,18.30
2019-02-25T02:08:00.086Z,20.43
2019-02-25T02:10:30.299Z,20.97
2019-02-25T02:13:00.461Z,21.10
2019-02-25T02:15:30.735Z,25.27
2019-02-25T02:18:01.010Z,20.17
2019-02-25T02:20:31.144Z,19.67
2019-02-25T02:23:01.414Z,19.03
2019-02-25T02:25:31.674Z,17.97
2019-02-25T02:28:01.913Z,20.27
2019-02-25T02:30:32.119Z,22.77
2019-02-25T02:33:02.342Z,19.53
2019-02-25T02:35:32.625Z,25.53
2019-02-25T02:38:02.782Z,21.27
2019-02-25T02:40:32.964Z,18.70
2019-02-25T02:43:03.084Z,25.90
2019-02-25T02:45:39.359Z,19.73
2019-02-25T02:48:16.003Z,22.27
2019-02-25T02:50:46.235Z,20.80
2019-02-25T02:53:17.309Z,21.77
2019-02-25T02:55:47.460Z,20.33
2019-02-25T02:58:17.657Z,21.10
2019-02-25T03:00:47.844Z,24.67
2019-02-25T03:03:17.952Z,18.90
2019-02-25T03:05:48.214Z,21.27
2019-02-25T03:08:18.383Z,21.17
2019-02-25T03:10:48.548Z,22.30
2019-02-25T03:13:18.791Z,19.13
2019-02-25T03:15:49.049Z,22.10
2019-02-25T03:18:19.342Z,21.03
2019-02-25T03:20:49.610Z,25.93
2019-02-25T03:23:19.829Z,24.10
2019-02-25T03:25:49.941Z,22.37
2019-02-25T03:28:20.072Z,20.97
2019-02-25T03:30:50.279Z,24.67
2019-02-25T03:33:20.517Z,33.67
2019-02-25T03:35:50.788Z,23.57
2019-02-25T03:38:20.931Z,19.00
2019-02-25T03:40:51.167Z,20.90
2019-02-25T03:43:21.452Z,23.17
2019-02-25T03:45:51.569Z,20.90
2019-02-25T03:48:24.574Z,21.17
2019-02-25T03:50:56.611Z,22.70
2019-02-25T03:53:26.838Z,20.97
2019-02-25T03:55:58.676Z,22.20
2019-02-25T03:58:29.009Z,19.77
2019-02-25T04:00:59.670Z,24.47
2019-02-25T04:03:29.877Z,20.67
2019-02-25T04:06:00.964Z,23.87
2019-02-25T04:08:31.245Z,21.23
2019-02-25T04:11:01.429Z,24.67
2019-02-25T04:13:31.671Z,29.53
2019-02-25T04:16:02.346Z,24.80
2019-02-25T04:18:32.470Z,26.37
2019-02-25T04:21:02.704Z,23.83
2019-02-25T04:23:32.977Z,25.20
2019-02-25T04:26:03.124Z,23.60
2019-02-25T04:28:33.262Z,23.87
2019-02-25T04:31:03.440Z,27.23
2019-02-25T04:33:33.703Z,28.20
2019-02-25T04:36:03.882Z,24.37
2019-02-25T04:38:33.988Z,23.70
2019-02-25T04:41:04.255Z,28.73
2019-02-25T04:43:34.430Z,28.40
2019-02-25T04:46:04.645Z,25.40
2019-02-25T04:48:34.929Z,27.17
2019-02-25T04:51:05.187Z,24.83
2019-02-25T04:53:35.428Z,25.83
2019-02-25T04:56:05.653Z,31.33
2019-02-25T04:58:36.798Z,33.20
2019-02-25T05:01:07.001Z,29.13
2019-02-25T05:03:37.189Z,30.80
2019-02-25T05:06:07.454Z,26.90
2019-02-25T05:08:37.668Z,28.63
2019-02-25T05:11:07.827Z,30.93
2019-02-25T05:13:38.093Z,33.10
2019-02-25T05:16:08.246Z,28.70
2019-02-25T05:18:38.462Z,32.30
2019-02-25T05:21:08.769Z,27.60
2019-02-25T05:23:39.006Z,29.63
2019-02-25T05:26:09.203Z,30.50
2019-02-25T05:28:39.443Z,31.53
2019-02-25T05:31:09.544Z,29.13
2019-02-25T05:33:39.687Z,32.47
2019-02-25T05:36:09.996Z,34.40
2019-02-25T05:38:40.275Z,30.53
2019-02-25T05:41:10.554Z,29.47
2019-02-25T05:43:40.723Z,34.00
2019-02-25T05:46:10.945Z,31.17
2019-02-25T05:48:41.456Z,30.23
2019-02-25T05:51:11.680Z,33.20
2019-02-25T05:53:41.838Z,37.47
2019-02-25T05:56:12.136Z,35.80
2019-02-25T05:58:42.409Z,37.47
2019-02-25T06:01:13.442Z,31.97
2019-02-25T06:03:43.721Z,27.20
2019-02-25T06:06:13.904Z,25.90
2019-02-25T06:08:44.106Z,26.00
2019-02-25T06:11:14.386Z,22.60
2019-02-25T06:13:44.602Z,25.13
2019-02-25T06:16:14.982Z,24.57
2019-02-25T06:18:45.247Z,28.87
2019-02-25T06:21:16.571Z,24.80
2019-02-25T06:23:47.229Z,23.83
2019-02-25T06:26:19.147Z,27.27
2019-02-25T06:28:49.311Z,27.40
2019-02-25T06:31:19.536Z,30.23
2019-02-25T06:33:49.578Z,39.80
2019-02-25T06:36:19.846Z,37.23
2019-02-25T06:38:50.362Z,31.90
2019-02-25T06:41:20.606Z,26.60
2019-02-25T06:43:50.839Z,31.37
2019-02-25T06:46:20.994Z,31.83
2019-02-25T06:48:51.187Z,30.43
2019-02-25T06:51:21.379Z,28.40
2019-02-25T06:53:52.195Z,28.70
2019-02-25T06:56:22.422Z,30.40
2019-02-25T06:58:52.712Z,35.63
2019-02-25T07:01:22.885Z,31.80
2019-02-25T07:04:11.818Z,28.37
2019-02-25T07:07:00.063Z,34.20
2019-02-25T07:09:56.294Z,30.70
2019-02-25T07:12:36.037Z,29.83
2019-02-25T07:15:12.304Z,31.57
2019-02-25T07:18:04.231Z,31.33
2019-02-25T07:20:53.294Z,32.07
2019-02-25T07:23:41.538Z,34.93
2019-02-25T07:26:30.807Z,31.63
2019-02-25T07:29:28.879Z,32.17
2019-02-25T07:32:30.371Z,32.07
2019-02-25T07:35:12.330Z,31.17
2019-02-25T07:38:07.435Z,31.97
2019-02-25T07:41:02.743Z,29.90
2019-02-25T07:43:51.807Z,30.13
2019-02-25T07:46:38.105Z,29.43
2019-02-25T07:49:17.442Z,32.07
2019-02-25T07:52:15.615Z,31.50
2019-02-25T07:55:06.217Z,31.43
2019-02-25T07:57:49.759Z,30.83
2019-02-25T08:00:41.679Z,31.70
2019-02-25T08:03:33.813Z,28.53
2019-02-25T08:06:29.737Z,29.13
2019-02-25T08:09:13.477Z,31.93
2019-02-25T08:11:54.237Z,27.33
2019-02-25T08:14:36.752Z,29.33
2019-02-25T08:17:16.896Z,28.10
2019-02-25T08:19:57.061Z,26.43
2019-02-25T08:22:58.617Z,33.30
2019-02-25T08:25:46.349Z,29.50
2019-02-25T08:28:38.484Z,27.37
2019-02-25T08:31:33.590Z,29.33
2019-02-25T08:34:18.574Z,29.20
2019-02-25T08:37:53.170Z,30.80
2019-02-25T08:41:10.203Z,29.47
2019-02-25T08:44:01.725Z,26.10
2019-02-25T08:46:36.656Z,28.17
2019-02-25T08:49:13.636Z,30.27
2019-02-25T08:51:43.743Z,31.37
2019-02-25T08:54:14.008Z,27.43
2019-02-25T08:56:46.241Z,28.93
2019-02-25T08:59:19.827Z,30.50
2019-02-25T09:02:00.323Z,28.33
2019-02-25T09:04:34.506Z,25.83
2019-02-25T09:07:12.963Z,31.90
2019-02-25T09:09:56.582Z,25.90
2019-02-25T09:12:27.202Z,25.93
2019-02-25T09:15:02.293Z,23.83
2019-02-25T09:17:32.633Z,23.73
2019-02-25T09:20:11.383Z,25.77
2019-02-25T09:22:45.439Z,28.90
2019-02-25T09:25:16.486Z,26.63
2019-02-25T09:27:48.516Z,25.23
2019-02-25T09:30:18.878Z,24.37
2019-02-25T09:32:49.710Z,28.53
2019-02-25T09:35:19.920Z,27.97
2019-02-25T09:37:50.088Z,28.93
2019-02-25T09:40:20.384Z,23.73
2019-02-25T09:42:50.587Z,25.07
2019-02-25T09:45:20.892Z,23.70
2019-02-25T09:47:51.109Z,25.07
2019-02-25T09:50:21.293Z,26.57
2019-02-25T09:52:51.482Z,26.70
2019-02-25T09:55:23.536Z,24.97
2019-02-25T09:57:54.121Z,25.27
2019-02-25T10:00:25.330Z,29.37
2019-02-25T10:02:55.581Z,27.50
2019-02-25T10:05:25.809Z,26.40
2019-02-25T10:07:56.821Z,27.60
2019-02-25T10:10:27.002Z,31.07
2019-02-25T10:12:57.460Z,25.30
2019-02-25T10:15:28.002Z,25.67
2019-02-25T10:17:58.287Z,27.47
2019-02-25T10:20:28.498Z,27.90
2019-02-25T10:22:58.587Z,27.27
2019-02-25T10:25:28.846Z,27.53
2019-02-25T10:27:59.050Z,26.20
2019-02-25T10:30:29.252Z,26.07
2019-02-25T10:33:00.850Z,28.33
2019-02-25T10:35:31.152Z,32.07
2019-02-25T10:38:03.144Z,31.63
2019-02-25T10:40:33.226Z,31.43
2019-02-25T10:43:03.884Z,26.57
2019-02-25T10:45:35.207Z,24.27
2019-02-25T10:48:06.122Z,23.77
2019-02-25T10:50:38.421Z,24.47
2019-02-25T10:53:08.089Z,27.90
2019-02-25T10:55:45.042Z,23.70
2019-02-25T10:58:13.811Z,25.73
2019-02-25T11:00:45.952Z,22.77
2019-02-25T11:03:17.880Z,27.63
2019-02-25T11:05:47.802Z,24.47
2019-02-25T11:08:18.872Z,22.40
2019-02-25T11:11:16.298Z,22.70
2019-02-25T11:13:46.785Z,23.27
2019-02-25T11:16:19.864Z,22.57
2019-02-25T11:18:50.654Z,27.13
2019-02-25T11:21:20.675Z,22.73
2019-02-25T11:23:53.165Z,21.10
2019-02-25T11:26:23.808Z,23.70
2019-02-25T11:28:54.823Z,21.43
2019-02-25T11:31:26.943Z,22.23
2019-02-25T11:33:58.439Z,20.63
2019-02-25T11:36:28.817Z,23.47
2019-02-25T11:39:00.705Z,21.23
2019-02-25T11:41:34.134Z,21.50
2019-02-25T11:44:05.030Z,27.03
2019-02-25T11:46:37.035Z,20.80
2019-02-25T11:49:07.218Z,32.07
2019-02-25T11:51:37.405Z,33.80
2019-02-25T11:54:07.671Z,21.60
2019-02-25T11:56:37.886Z,20.40
2019-02-25T11:59:08.014Z,22.43
2019-02-25T12:01:38.231Z,21.20
2019-02-25T12:04:08.463Z,19.47
2019-02-25T12:06:38.693Z,22.27
2019-02-25T12:09:09.001Z,28.43
2019-02-25T12:11:40.142Z,19.93
2019-02-25T12:14:10.317Z,16.50
2019-02-25T12:16:40.577Z,18.00
2019-02-25T12:19:17.799Z,21.27
2019-02-25T12:21:42.658Z,17.00
2019-02-25T12:24:12.999Z,18.47
2019-02-25T12:26:43.212Z,17.93
2019-02-25T12:29:13.450Z,20.80
2019-02-25T12:31:43.645Z,18.37
2019-02-25T12:34:13.876Z,18.27
2019-02-25T12:36:44.049Z,19.37
2019-02-25T12:39:25.560Z,19.10
2019-02-25T12:41:55.951Z,17.90
2019-02-25T12:44:26.137Z,19.93
2019-02-25T12:46:56.394Z,18.00
2019-02-25T12:49:26.620Z,19.43
2019-02-25T12:51:56.839Z,17.50
2019-02-25T12:54:27.057Z,17.93
2019-02-25T12:56:57.228Z,18.87
2019-02-25T12:59:27.334Z,15.30
2019-02-25T13:01:57.787Z,16.50
2019-02-25T13:04:27.996Z,16.60
2019-02-25T13:06:58.274Z,15.07
2019-02-25T13:09:30.261Z,15.57
2019-02-25T13:12:00.401Z,16.70
2019-02-25T13:14:31.541Z,16.90
2019-02-25T13:17:01.825Z,16.07
2019-02-25T13:19:31.823Z,56.27
2019-02-25T13:22:02.058Z,18.60
2019-02-25T13:24:32.743Z,17.32
2019-02-25T13:27:05.660Z,18.67
2019-02-25T13:29:35.630Z,17.85
2019-02-25T13:32:05.750Z,17.85
2019-02-25T13:34:36.156Z,18.45
2019-02-25T13:37:06.905Z,19.50
2019-02-25T13:39:37.178Z,17.77
2019-02-25T13:42:07.401Z,18.23
2019-02-25T13:44:37.691Z,17.95
2019-02-25T13:47:07.901Z,17.52
2019-02-25T13:49:38.163Z,19.20
2019-02-25T13:52:08.458Z,18.90
2019-02-25T13:54:39.077Z,18.48
2019-02-25T13:57:09.498Z,18.90
2019-02-25T13:59:40.350Z,19.52
2019-02-25T14:02:10.552Z,19.00
2019-02-25T14:04:40.828Z,20.70
2019-02-25T14:07:11.827Z,20.08
2019-02-25T14:09:42.096Z,20.10
2019-02-25T14:12:12.406Z,21.27
2019-02-25T14:14:42.701Z,19.37
2019-02-25T14:17:13.844Z,19.75
2019-02-25T14:19:44.065Z,19.40
2019-02-25T14:22:14.849Z,20.15
2019-02-25T14:24:46.407Z,21.57
2019-02-25T14:27:16.598Z,21.10
2019-02-25T14:29:48.748Z,20.15
2019-02-25T14:32:19.097Z,19.00
2019-02-25T14:34:49.526Z,20.12
2019-02-25T14:37:21.772Z,18.42
2019-02-25T14:39:54.334Z,18.25
2019-02-25T14:42:25.996Z,20.05
2019-02-25T14:44:56.794Z,19.90
2019-02-25T14:47:34.793Z,18.23
2019-02-25T14:50:00.448Z,20.05
2019-02-25T14:52:31.767Z,18.07
2019-02-25T14:55:04.094Z,19.62
2019-02-25T14:57:35.538Z,19.10
2019-02-25T15:00:07.599Z,120.47
2019-02-25T15:02:39.005Z,18.95
2019-02-25T15:05:10.827Z,19.23
2019-02-25T15:07:42.896Z,20.20
2019-02-25T15:10:13.473Z,18.95
2019-02-25T15:12:43.841Z,22.30
2019-02-25T15:15:14.511Z,21.33
2019-02-25T15:17:46.098Z,20.65
2019-02-25T15:20:18.303Z,19.98
2019-02-25T15:22:49.048Z,21.23
2019-02-25T15:25:19.490Z,20.62
2019-02-25T15:27:49.722Z,22.13
2019-02-25T15:30:22.905Z,23.42
2019-02-25T15:32:56.931Z,21.85
2019-02-25T15:35:29.159Z,21.40
2019-02-25T15:38:00.086Z,20.48
2019-02-25T15:40:30.072Z,21.33
2019-02-25T15:43:04.915Z,20.52
2019-02-25T15:45:38.375Z,21.57
2019-02-25T15:48:19.336Z,22.35
2019-02-25T15:50:53.614Z,20.97
2019-02-25T15:53:24.905Z,24.53
2019-02-25T15:55:57.214Z,21.53
2019-02-25T15:58:27.152Z,22.20
2019-02-25T16:00:57.319Z,25.07
2019-02-25T16:03:27.997Z,24.97
2019-02-25T16:06:01.699Z,27.17
2019-02-25T16:08:31.117Z,27.93
2019-02-25T16:11:01.922Z,26.60
2019-02-25T16:13:32.718Z,26.63
2019-02-25T16:16:03.243Z,28.83
2019-02-25T16:18:33.570Z,27.90
2019-02-25T16:21:03.849Z,27.77
2019-02-25T16:23:34.664Z,28.03
2019-02-25T16:26:06.321Z,29.67
2019-02-25T16:28:37.901Z,28.57
2019-02-25T16:31:08.883Z,26.87
2019-02-25T16:33:40.484Z,32.23
2019-02-25T16:36:10.649Z,32.53
2019-02-25T16:38:40.881Z,32.90
2019-02-25T16:41:11.306Z,31.37
2019-02-25T16:43:41.568Z,34.93
2019-02-25T16:46:14.065Z,33.03
2019-02-25T16:48:43.967Z,29.93
2019-02-25T16:51:14.230Z,30.30
2019-02-25T16:53:45.581Z,29.13
2019-02-25T16:56:16.548Z,32.60
2019-02-25T16:58:47.714Z,37.70
2019-02-25T17:01:18.398Z,35.67
2019-02-25T17:03:48.744Z,37.70
2019-02-25T17:06:19.006Z,29.87
2019-02-25T17:08:50.945Z,33.83
2019-02-25T17:11:21.905Z,42.50
2019-02-25T17:13:53.003Z,32.63
2019-02-25T17:16:24.279Z,38.23
2019-02-25T17:18:54.421Z,29.23
2019-02-25T17:21:26.586Z,29.77
2019-02-25T17:23:58.198Z,31.90
2019-02-25T17:26:28.421Z,33.30
2019-02-25T17:28:58.597Z,30.90
2019-02-25T17:31:30.569Z,31.13
2019-02-25T17:34:00.721Z,39.17
2019-02-25T17:36:31.101Z,32.83
2019-02-25T17:39:01.383Z,33.47
2019-02-25T17:41:33.128Z,35.80
2019-02-25T17:44:03.999Z,38.73
2019-02-25T17:46:36.650Z,42.97
2019-02-25T17:49:07.869Z,37.37
2019-02-25T17:51:39.350Z,42.97
2019-02-25T17:54:10.210Z,42.20
2019-02-25T17:56:43.133Z,47.87
2019-02-25T17:59:14.997Z,46.10
2019-02-25T18:01:48.447Z,51.20
2019-02-25T18:04:20.858Z,47.37
2019-02-25T18:06:52.462Z,42.73
2019-02-25T18:09:24.852Z,43.47
2019-02-25T18:11:56.808Z,54.97
2019-02-25T18:14:29.149Z,51.80
2019-02-25T18:17:01.057Z,51.67
2019-02-25T18:19:34.467Z,51.57
2019-02-25T18:22:06.007Z,56.63
2019-02-25T18:24:38.421Z,78.83
2019-02-25T18:27:09.990Z,64.00
2019-02-25T18:29:44.009Z,63.17
2019-02-25T18:32:14.822Z,62.10
2019-02-25T18:34:46.858Z,71.27
2019-02-25T18:37:19.335Z,62.23
2019-02-25T18:39:52.136Z,66.00
2019-02-25T18:42:28.453Z,60.30
2019-02-25T18:45:00.255Z,65.00
2019-02-25T18:47:31.667Z,68.27
2019-02-25T18:50:03.213Z,57.23
2019-02-25T18:52:36.210Z,73.80
2019-02-25T18:55:08.985Z,60.50
2019-02-25T18:57:39.680Z,61.40
2019-02-25T19:00:12.716Z,54.13
2019-02-25T19:02:43.889Z,58.87
2019-02-25T19:05:14.885Z,50.23
2019-02-25T19:07:47.279Z,46.90
2019-02-25T19:10:22.191Z,47.03
2019-02-25T19:12:59.143Z,47.77
2019-02-25T19:15:30.508Z,51.03
2019-02-25T19:18:02.030Z,45.73
2019-02-25T19:20:34.781Z,42.10
2019-02-25T19:23:09.511Z,49.03
2019-02-25T19:25:41.814Z,46.37
2019-02-25T19:28:16.509Z,43.70
2019-02-25T19:30:46.646Z,48.40
2019-02-25T19:33:20.399Z,49.50
2019-02-25T19:35:52.536Z,54.43
2019-02-25T19:38:25.225Z,52.67
2019-02-25T19:40:57.599Z,58.20
2019-02-25T19:43:29.067Z,49.20
2019-02-25T19:46:01.757Z,51.97
2019-02-25T19:48:33.628Z,50.03
2019-02-25T19:51:06.220Z,48.60
2019-02-25T19:53:42.475Z,49.27
2019-02-25T19:56:13.639Z,50.07
2019-02-25T19:58:45.136Z,51.77
2019-02-25T20:01:16.818Z,51.43
2019-02-25T20:03:48.424Z,44.23
2019-02-25T20:06:21.705Z,52.90
2019-02-25T20:08:53.493Z,48.73
2019-02-25T20:11:25.872Z,43.57
2019-02-25T20:13:56.858Z,49.27
2019-02-25T20:16:29.759Z,42.83
2019-02-25T20:19:00.309Z,48.60
2019-02-25T20:21:31.113Z,42.83
2019-02-25T20:24:01.284Z,42.00
2019-02-25T20:26:32.745Z,41.57
2019-02-25T20:29:04.161Z,45.67
2019-02-25T20:31:35.376Z,40.97
2019-02-25T20:34:05.766Z,37.20
2019-02-25T20:36:35.919Z,42.50
2019-02-25T20:39:06.738Z,38.20
2019-02-25T20:41:36.941Z,34.53
2019-02-25T20:44:07.268Z,36.30
2019-02-25T20:46:38.630Z,33.53
2019-02-25T20:49:09.078Z,35.63
2019-02-25T20:51:39.346Z,37.13
2019-02-25T20:54:11.147Z,41.80
2019-02-25T20:56:41.339Z,37.90
2019-02-25T20:59:11.654Z,39.23
2019-02-25T21:01:44.005Z,39.43
2019-02-25T21:04:15.600Z,37.17
2019-02-25T21:06:45.693Z,35.73
2019-02-25T21:09:16.113Z,37.83
2019-02-25T21:11:46.346Z,37.37
2019-02-25T21:14:16.678Z,31.40
2019-02-25T21:16:46.770Z,36.87
2019-02-25T21:19:18.371Z,38.30
2019-02-25T21:21:52.951Z,36.93
2019-02-25T21:24:20.776Z,33.43
2019-02-25T21:26:50.942Z,36.10
2019-02-25T21:29:25.081Z,34.40
2019-02-25T21:31:56.115Z,37.20
2019-02-25T21:34:26.523Z,35.27
2019-02-25T21:36:58.513Z,30.50
2019-02-25T21:39:29.100Z,34.00
2019-02-25T21:41:59.272Z,30.20
2019-02-25T21:44:31.446Z,30.93
2019-02-25T21:47:03.733Z,26.57
2019-02-25T21:49:34.406Z,32.07
2019-02-25T21:52:06.257Z,31.30
2019-02-25T21:54:37.217Z,30.97
2019-02-25T21:57:09.590Z,34.20
2019-02-25T21:59:41.088Z,32.30
2019-02-25T22:02:11.089Z,34.10
2019-02-25T22:04:43.099Z,32.03
2019-02-25T22:07:17.159Z,36.23
2019-02-25T22:09:45.933Z,35.20
2019-02-25T22:12:16.288Z,41.40
2019-02-25T22:14:47.797Z,42.67
2019-02-25T22:17:20.634Z,37.33
2019-02-25T22:19:50.489Z,38.53
2019-02-25T22:22:24.113Z,39.10
2019-02-25T22:24:52.645Z,35.53
2019-02-25T22:27:23.070Z,34.90
2019-02-25T22:29:53.342Z,36.17
2019-02-25T22:32:23.679Z,41.67
2019-02-25T22:34:56.031Z,43.07
2019-02-25T22:37:26.885Z,36.63
2019-02-25T22:39:57.665Z,35.90
2019-02-25T22:42:29.690Z,33.73
2019-02-25T22:44:59.762Z,34.87
2019-02-25T22:47:30.066Z,35.43
2019-02-25T22:50:00.287Z,34.10
2019-02-25T22:52:31.511Z,41.57
2019-02-25T22:55:05.935Z,38.37
2019-02-25T22:57:34.069Z,32.77
2019-02-25T23:00:06.406Z,40.90
2019-02-25T23:02:36.841Z,39.00
2019-02-25T23:05:08.178Z,40.73
2019-02-25T23:07:39.121Z,38.53
2019-02-25T23:10:12.797Z,37.13
2019-02-25T23:12:42.875Z,39.17
2019-02-25T23:15:13.133Z,33.07
2019-02-25T23:17:44.858Z,35.77
2019-02-25T23:20:15.194Z,36.30
2019-02-25T23:22:45.410Z,33.93
2019-02-25T23:25:15.693Z,34.97
2019-02-25T23:27:45.905Z,31.83
2019-02-25T23:30:16.169Z,34.53
2019-02-25T23:32:46.389Z,35.17
2019-02-25T23:35:18.469Z,36.67
2019-02-25T23:37:51.033Z,39.90
2019-02-25T23:40:20.295Z,34.53
2019-02-25T23:42:50.497Z,37.17
2019-02-25T23:45:23.038Z,34.87
2019-02-25T23:47:55.254Z,36.37
2019-02-25T23:50:25.739Z,39.10
2019-02-25T23:52:56.408Z,39.10
2019-02-25T23:55:27.785Z,34.40
2019-02-25T23:57:58.573Z,36.43
